sensor_id;sensor_type;location;lat;lon;timestamp;P1;durP1;ratioP1;P2;durP2;ratioP2
46348;SDS011;32057;47.830;19.046;2023-08-06T00:01:11;5.22;;;4.35;;
46348;SDS011;32057;47.830;19.046;2023-08-06T00:03:37;5.70;;;4.90;;
46348;SDS011;32057;47.830;19.046;2023-08-06T00:06:02;6.85;;;5.13;;
46348;SDS011;32057;47.830;19.046;2023-08-06T00:08:30;5.50;;;4.75;;
46348;SDS011;32057;47.830;19.046;2023-08-06T00:10:55;8.00;;;4.90;;
46348;SDS011;32057;47.830;19.046;2023-08-06T00:13:20;6.25;;;5.18;;
46348;SDS011;32057;47.830;19.046;2023-08-06T00:15:46;5.53;;;4.90;;
46348;SDS011;32057;47.830;19.046;2023-08-06T00:18:11;5.88;;;4.85;;
46348;SDS011;32057;47.830;19.046;2023-08-06T00:20:40;5.40;;;4.60;;
46348;SDS011;32057;47.830;19.046;2023-08-06T00:23:06;5.20;;;4.45;;
46348;SDS011;32057;47.830;19.046;2023-08-06T00:25:32;6.93;;;5.65;;
46348;SDS011;32057;47.830;19.046;2023-08-06T00:27:57;6.30;;;4.75;;
46348;SDS011;32057;47.830;19.046;2023-08-06T00:30:23;4.43;;;4.00;;
46348;SDS011;32057;47.830;19.046;2023-08-06T00:32:48;5.28;;;4.78;;
46348;SDS011;32057;47.830;19.046;2023-08-06T00:35:14;18.58;;;5.00;;
46348;SDS011;32057;47.830;19.046;2023-08-06T00:37:39;5.18;;;4.57;;
46348;SDS011;32057;47.830;19.046;2023-08-06T00:40:05;7.00;;;4.97;;
46348;SDS011;32057;47.830;19.046;2023-08-06T00:42:32;7.70;;;5.30;;
46348;SDS011;32057;47.830;19.046;2023-08-06T00:44:57;5.55;;;4.60;;
46348;SDS011;32057;47.830;19.046;2023-08-06T00:47:23;7.72;;;5.45;;
46348;SDS011;32057;47.830;19.046;2023-08-06T00:49:49;6.82;;;5.75;;
46348;SDS011;32057;47.830;19.046;2023-08-06T00:52:15;9.52;;;4.93;;
46348;SDS011;32057;47.830;19.046;2023-08-06T00:54:40;8.77;;;5.60;;
46348;SDS011;32057;47.830;19.046;2023-08-06T00:57:06;7.60;;;5.45;;
46348;SDS011;32057;47.830;19.046;2023-08-06T00:59:32;8.77;;;4.97;;
46348;SDS011;32057;47.830;19.046;2023-08-06T01:01:58;5.95;;;4.90;;
46348;SDS011;32057;47.830;19.046;2023-08-06T01:04:25;7.00;;;5.10;;
46348;SDS011;32057;47.830;19.046;2023-08-06T01:07:17;4.97;;;4.35;;
46348;SDS011;32057;47.830;19.046;2023-08-06T01:12:41;6.73;;;5.13;;
46348;SDS011;32057;47.830;19.046;2023-08-06T01:15:35;7.45;;;5.53;;
46348;SDS011;32057;47.830;19.046;2023-08-06T01:18:08;6.35;;;4.95;;
46348;SDS011;32057;47.830;19.046;2023-08-06T01:20:35;5.70;;;4.47;;
46348;SDS011;32057;47.830;19.046;2023-08-06T01:23:00;11.75;;;5.10;;
46348;SDS011;32057;47.830;19.046;2023-08-06T01:25:28;4.88;;;4.30;;
46348;SDS011;32057;47.830;19.046;2023-08-06T01:27:57;8.63;;;4.50;;
46348;SDS011;32057;47.830;19.046;2023-08-06T01:30:34;5.00;;;4.15;;
46348;SDS011;32057;47.830;19.046;2023-08-06T01:33:06;5.93;;;4.25;;
46348;SDS011;32057;47.830;19.046;2023-08-06T01:35:35;5.18;;;3.90;;
46348;SDS011;32057;47.830;19.046;2023-08-06T01:38:02;3.60;;;3.30;;
46348;SDS011;32057;47.830;19.046;2023-08-06T01:40:28;6.40;;;5.20;;
46348;SDS011;32057;47.830;19.046;2023-08-06T01:42:54;4.88;;;3.80;;
46348;SDS011;32057;47.830;19.046;2023-08-06T01:45:20;3.75;;;3.05;;
46348;SDS011;32057;47.830;19.046;2023-08-06T01:47:45;3.70;;;3.40;;
46348;SDS011;32057;47.830;19.046;2023-08-06T01:50:11;4.22;;;3.60;;
46348;SDS011;32057;47.830;19.046;2023-08-06T01:52:36;6.30;;;2.88;;
46348;SDS011;32057;47.830;19.046;2023-08-06T01:55:02;3.08;;;2.78;;
46348;SDS011;32057;47.830;19.046;2023-08-06T01:57:27;2.80;;;2.47;;
46348;SDS011;32057;47.830;19.046;2023-08-06T01:59:53;3.75;;;2.47;;
46348;SDS011;32057;47.830;19.046;2023-08-06T02:02:18;3.60;;;2.90;;
46348;SDS011;32057;47.830;19.046;2023-08-06T02:04:44;3.78;;;2.78;;
46348;SDS011;32057;47.830;19.046;2023-08-06T02:07:10;4.95;;;2.72;;
46348;SDS011;32057;47.830;19.046;2023-08-06T02:09:35;3.15;;;2.30;;
46348;SDS011;32057;47.830;19.046;2023-08-06T02:12:01;3.70;;;3.00;;
46348;SDS011;32057;47.830;19.046;2023-08-06T02:14:27;2.55;;;2.35;;
46348;SDS011;32057;47.830;19.046;2023-08-06T02:16:52;6.53;;;2.30;;
46348;SDS011;32057;47.830;19.046;2023-08-06T02:19:18;2.85;;;2.65;;
46348;SDS011;32057;47.830;19.046;2023-08-06T02:21:43;2.80;;;2.15;;
46348;SDS011;32057;47.830;19.046;2023-08-06T02:24:08;4.68;;;2.58;;
46348;SDS011;32057;47.830;19.046;2023-08-06T02:26:34;2.67;;;2.22;;
46348;SDS011;32057;47.830;19.046;2023-08-06T02:28:59;3.00;;;2.30;;
46348;SDS011;32057;47.830;19.046;2023-08-06T02:31:25;2.30;;;2.00;;
46348;SDS011;32057;47.830;19.046;2023-08-06T02:33:50;2.65;;;2.10;;
46348;SDS011;32057;47.830;19.046;2023-08-06T02:36:15;2.67;;;1.95;;
46348;SDS011;32057;47.830;19.046;2023-08-06T02:38:41;3.20;;;1.83;;
46348;SDS011;32057;47.830;19.046;2023-08-06T02:41:06;2.10;;;1.92;;
46348;SDS011;32057;47.830;19.046;2023-08-06T02:43:32;2.55;;;2.28;;
46348;SDS011;32057;47.830;19.046;2023-08-06T02:45:57;2.58;;;1.88;;
46348;SDS011;32057;47.830;19.046;2023-08-06T02:48:23;3.17;;;1.77;;
46348;SDS011;32057;47.830;19.046;2023-08-06T02:50:49;2.00;;;1.60;;
46348;SDS011;32057;47.830;19.046;2023-08-06T02:53:14;1.77;;;1.67;;
46348;SDS011;32057;47.830;19.046;2023-08-06T02:55:44;1.85;;;1.50;;
46348;SDS011;32057;47.830;19.046;2023-08-06T02:58:16;1.70;;;1.60;;
46348;SDS011;32057;47.830;19.046;2023-08-06T03:00:42;1.50;;;1.40;;
46348;SDS011;32057;47.830;19.046;2023-08-06T03:03:08;1.98;;;1.60;;
46348;SDS011;32057;47.830;19.046;2023-08-06T03:05:34;3.90;;;1.50;;
46348;SDS011;32057;47.830;19.046;2023-08-06T03:08:00;1.63;;;1.48;;
46348;SDS011;32057;47.830;19.046;2023-08-06T03:10:25;2.15;;;1.60;;
46348;SDS011;32057;47.830;19.046;2023-08-06T03:12:50;1.85;;;1.50;;
46348;SDS011;32057;47.830;19.046;2023-08-06T03:15:16;3.00;;;1.58;;
46348;SDS011;32057;47.830;19.046;2023-08-06T03:17:41;2.42;;;1.30;;
46348;SDS011;32057;47.830;19.046;2023-08-06T03:20:07;2.70;;;1.77;;
46348;SDS011;32057;47.830;19.046;2023-08-06T03:22:32;2.00;;;1.35;;
46348;SDS011;32057;47.830;19.046;2023-08-06T03:24:58;5.03;;;1.58;;
46348;SDS011;32057;47.830;19.046;2023-08-06T03:27:23;2.10;;;1.80;;
46348;SDS011;32057;47.830;19.046;2023-08-06T03:29:49;1.75;;;1.63;;
46348;SDS011;32057;47.830;19.046;2023-08-06T03:32:15;2.63;;;1.70;;
46348;SDS011;32057;47.830;19.046;2023-08-06T03:34:41;1.60;;;1.50;;
46348;SDS011;32057;47.830;19.046;2023-08-06T03:37:06;2.10;;;1.90;;
46348;SDS011;32057;47.830;19.046;2023-08-06T03:39:31;2.95;;;2.17;;
46348;SDS011;32057;47.830;19.046;2023-08-06T03:41:57;1.67;;;1.58;;
46348;SDS011;32057;47.830;19.046;2023-08-06T03:44:22;1.55;;;1.42;;
46348;SDS011;32057;47.830;19.046;2023-08-06T03:46:47;2.00;;;1.80;;
46348;SDS011;32057;47.830;19.046;2023-08-06T04:01:29;2.72;;;1.88;;
46348;SDS011;32057;47.830;19.046;2023-08-06T04:03:55;1.55;;;1.40;;
46348;SDS011;32057;47.830;19.046;2023-08-06T04:06:20;2.15;;;1.95;;
46348;SDS011;32057;47.830;19.046;2023-08-06T04:08:45;1.63;;;1.50;;
46348;SDS011;32057;47.830;19.046;2023-08-06T04:11:11;1.65;;;1.55;;
46348;SDS011;32057;47.830;19.046;2023-08-06T04:13:38;3.50;;;1.65;;
46348;SDS011;32057;47.830;19.046;2023-08-06T04:16:03;2.40;;;1.83;;
46348;SDS011;32057;47.830;19.046;2023-08-06T04:18:29;1.58;;;1.40;;
46348;SDS011;32057;47.830;19.046;2023-08-06T04:20:54;1.67;;;1.48;;
46348;SDS011;32057;47.830;19.046;2023-08-06T04:23:22;2.92;;;1.30;;
46348;SDS011;32057;47.830;19.046;2023-08-06T04:25:47;1.63;;;1.52;;
46348;SDS011;32057;47.830;19.046;2023-08-06T04:28:13;1.50;;;1.40;;
46348;SDS011;32057;47.830;19.046;2023-08-06T04:30:38;1.77;;;1.67;;
46348;SDS011;32057;47.830;19.046;2023-08-06T04:33:04;4.07;;;2.15;;
46348;SDS011;32057;47.830;19.046;2023-08-06T04:35:29;2.20;;;2.03;;
46348;SDS011;32057;47.830;19.046;2023-08-06T04:37:55;2.90;;;2.03;;
46348;SDS011;32057;47.830;19.046;2023-08-06T04:40:20;2.60;;;1.40;;
46348;SDS011;32057;47.830;19.046;2023-08-06T04:42:45;1.65;;;1.50;;
46348;SDS011;32057;47.830;19.046;2023-08-06T04:45:11;1.20;;;1.10;;
46348;SDS011;32057;47.830;19.046;2023-08-06T04:47:36;2.25;;;1.55;;
46348;SDS011;32057;47.830;19.046;2023-08-06T04:50:02;2.40;;;1.00;;
46348;SDS011;32057;47.830;19.046;2023-08-06T04:52:27;1.13;;;0.80;;
46348;SDS011;32057;47.830;19.046;2023-08-06T04:54:53;0.70;;;0.70;;
46348;SDS011;32057;47.830;19.046;2023-08-06T04:57:19;0.57;;;0.57;;
46348;SDS011;32057;47.830;19.046;2023-08-06T04:59:45;1.25;;;0.75;;
46348;SDS011;32057;47.830;19.046;2023-08-06T05:02:11;0.98;;;0.63;;
46348;SDS011;32057;47.830;19.046;2023-08-06T05:04:36;0.77;;;0.40;;
46348;SDS011;32057;47.830;19.046;2023-08-06T05:07:01;0.30;;;0.30;;
46348;SDS011;32057;47.830;19.046;2023-08-06T05:09:27;0.43;;;0.43;;
46348;SDS011;32057;47.830;19.046;2023-08-06T05:11:52;0.40;;;0.40;;
46348;SDS011;32057;47.830;19.046;2023-08-06T05:14:18;3.13;;;0.65;;
46348;SDS011;32057;47.830;19.046;2023-08-06T05:16:43;0.63;;;0.40;;
46348;SDS011;32057;47.830;19.046;2023-08-06T05:19:09;0.57;;;0.50;;
46348;SDS011;32057;47.830;19.046;2023-08-06T05:21:34;0.50;;;0.50;;
46348;SDS011;32057;47.830;19.046;2023-08-06T05:23:59;0.57;;;0.50;;
46348;SDS011;32057;47.830;19.046;2023-08-06T05:26:25;0.40;;;0.40;;
46348;SDS011;32057;47.830;19.046;2023-08-06T05:28:50;0.40;;;0.40;;
46348;SDS011;32057;47.830;19.046;2023-08-06T05:31:15;0.70;;;0.50;;
46348;SDS011;32057;47.830;19.046;2023-08-06T05:33:41;1.55;;;0.60;;
46348;SDS011;32057;47.830;19.046;2023-08-06T05:36:06;0.57;;;0.57;;
46348;SDS011;32057;47.830;19.046;2023-08-06T05:38:31;0.55;;;0.50;;
46348;SDS011;32057;47.830;19.046;2023-08-06T05:40:57;0.40;;;0.40;;
46348;SDS011;32057;47.830;19.046;2023-08-06T05:43:22;1.75;;;0.45;;
46348;SDS011;32057;47.830;19.046;2023-08-06T05:45:51;0.40;;;0.40;;
46348;SDS011;32057;47.830;19.046;2023-08-06T05:48:16;0.40;;;0.40;;
46348;SDS011;32057;47.830;19.046;2023-08-06T05:50:42;0.40;;;0.40;;
46348;SDS011;32057;47.830;19.046;2023-08-06T05:53:07;0.90;;;0.40;;
46348;SDS011;32057;47.830;19.046;2023-08-06T05:55:33;0.32;;;0.32;;
46348;SDS011;32057;47.830;19.046;2023-08-06T05:57:59;0.45;;;0.45;;
46348;SDS011;32057;47.830;19.046;2023-08-06T06:00:24;0.25;;;0.25;;
46348;SDS011;32057;47.830;19.046;2023-08-06T06:02:50;0.30;;;0.30;;
46348;SDS011;32057;47.830;19.046;2023-08-06T06:05:15;1.55;;;0.30;;
46348;SDS011;32057;47.830;19.046;2023-08-06T06:07:41;3.00;;;0.32;;
46348;SDS011;32057;47.830;19.046;2023-08-06T06:10:06;0.45;;;0.45;;
46348;SDS011;32057;47.830;19.046;2023-08-06T06:12:32;0.50;;;0.50;;
46348;SDS011;32057;47.830;19.046;2023-08-06T06:14:57;0.50;;;0.50;;
46348;SDS011;32057;47.830;19.046;2023-08-06T06:17:23;0.50;;;0.50;;
46348;SDS011;32057;47.830;19.046;2023-08-06T06:19:48;0.40;;;0.40;;
46348;SDS011;32057;47.830;19.046;2023-08-06T06:22:14;0.35;;;0.35;;
46348;SDS011;32057;47.830;19.046;2023-08-06T06:24:39;0.57;;;0.57;;
46348;SDS011;32057;47.830;19.046;2023-08-06T06:27:05;0.30;;;0.30;;
46348;SDS011;32057;47.830;19.046;2023-08-06T06:29:30;0.40;;;0.40;;
46348;SDS011;32057;47.830;19.046;2023-08-06T06:31:56;0.60;;;0.60;;
46348;SDS011;32057;47.830;19.046;2023-08-06T06:34:21;0.70;;;0.70;;
46348;SDS011;32057;47.830;19.046;2023-08-06T06:36:47;0.60;;;0.60;;
46348;SDS011;32057;47.830;19.046;2023-08-06T06:39:12;0.60;;;0.60;;
46348;SDS011;32057;47.830;19.046;2023-08-06T06:41:38;3.10;;;0.75;;
46348;SDS011;32057;47.830;19.046;2023-08-06T06:44:03;1.17;;;1.08;;
46348;SDS011;32057;47.830;19.046;2023-08-06T06:46:30;0.60;;;0.60;;
46348;SDS011;32057;47.830;19.046;2023-08-06T06:48:56;0.50;;;0.50;;
46348;SDS011;32057;47.830;19.046;2023-08-06T06:51:21;0.40;;;0.40;;
46348;SDS011;32057;47.830;19.046;2023-08-06T06:53:47;0.50;;;0.50;;
46348;SDS011;32057;47.830;19.046;2023-08-06T06:56:12;1.00;;;0.60;;
46348;SDS011;32057;47.830;19.046;2023-08-06T06:58:38;0.65;;;0.65;;
46348;SDS011;32057;47.830;19.046;2023-08-06T07:01:04;0.60;;;0.60;;
46348;SDS011;32057;47.830;19.046;2023-08-06T07:03:29;0.40;;;0.40;;
46348;SDS011;32057;47.830;19.046;2023-08-06T07:05:58;0.88;;;0.50;;
46348;SDS011;32057;47.830;19.046;2023-08-06T07:08:24;0.50;;;0.50;;
46348;SDS011;32057;47.830;19.046;2023-08-06T07:10:49;0.50;;;0.50;;
46348;SDS011;32057;47.830;19.046;2023-08-06T07:13:15;0.40;;;0.40;;
46348;SDS011;32057;47.830;19.046;2023-08-06T07:15:41;0.50;;;0.50;;
46348;SDS011;32057;47.830;19.046;2023-08-06T07:18:07;0.40;;;0.38;;
46348;SDS011;32057;47.830;19.046;2023-08-06T07:20:32;0.30;;;0.30;;
46348;SDS011;32057;47.830;19.046;2023-08-06T07:22:59;0.20;;;0.20;;
46348;SDS011;32057;47.830;19.046;2023-08-06T07:25:25;2.72;;;0.55;;
46348;SDS011;32057;47.830;19.046;2023-08-06T07:27:50;4.15;;;0.68;;
46348;SDS011;32057;47.830;19.046;2023-08-06T07:30:16;0.40;;;0.40;;
46348;SDS011;32057;47.830;19.046;2023-08-06T07:32:42;0.38;;;0.38;;
46348;SDS011;32057;47.830;19.046;2023-08-06T07:35:07;0.85;;;0.30;;
46348;SDS011;32057;47.830;19.046;2023-08-06T07:37:37;0.43;;;0.30;;
46348;SDS011;32057;47.830;19.046;2023-08-06T07:40:03;1.35;;;0.30;;
46348;SDS011;32057;47.830;19.046;2023-08-06T07:42:29;3.00;;;0.30;;
46348;SDS011;32057;47.830;19.046;2023-08-06T07:44:55;0.13;;;0.13;;
46348;SDS011;32057;47.830;19.046;2023-08-06T07:47:21;0.10;;;0.10;;
46348;SDS011;32057;47.830;19.046;2023-08-06T07:49:47;0.10;;;0.10;;
46348;SDS011;32057;47.830;19.046;2023-08-06T07:52:13;0.63;;;0.30;;
46348;SDS011;32057;47.830;19.046;2023-08-06T07:54:38;1.65;;;0.20;;
46348;SDS011;32057;47.830;19.046;2023-08-06T07:57:04;0.17;;;0.17;;
46348;SDS011;32057;47.830;19.046;2023-08-06T07:59:30;0.10;;;0.10;;
46348;SDS011;32057;47.830;19.046;2023-08-06T08:01:55;0.50;;;0.50;;
46348;SDS011;32057;47.830;19.046;2023-08-06T08:04:21;0.20;;;0.20;;
46348;SDS011;32057;47.830;19.046;2023-08-06T08:06:46;0.13;;;0.13;;
46348;SDS011;32057;47.830;19.046;2023-08-06T08:09:12;0.20;;;0.20;;
46348;SDS011;32057;47.830;19.046;2023-08-06T08:11:38;0.20;;;0.20;;
46348;SDS011;32057;47.830;19.046;2023-08-06T08:14:04;0.20;;;0.20;;
46348;SDS011;32057;47.830;19.046;2023-08-06T08:16:30;0.20;;;0.20;;
46348;SDS011;32057;47.830;19.046;2023-08-06T08:18:55;0.20;;;0.20;;
46348;SDS011;32057;47.830;19.046;2023-08-06T08:21:21;0.13;;;0.13;;
46348;SDS011;32057;47.830;19.046;2023-08-06T08:23:46;0.10;;;0.10;;
46348;SDS011;32057;47.830;19.046;2023-08-06T08:26:11;0.32;;;0.32;;
46348;SDS011;32057;47.830;19.046;2023-08-06T08:28:37;0.10;;;0.10;;
46348;SDS011;32057;47.830;19.046;2023-08-06T08:31:02;0.10;;;0.10;;
46348;SDS011;32057;47.830;19.046;2023-08-06T08:33:28;0.10;;;0.10;;
46348;SDS011;32057;47.830;19.046;2023-08-06T08:35:53;0.10;;;0.10;;
46348;SDS011;32057;47.830;19.046;2023-08-06T08:38:18;0.10;;;0.10;;
46348;SDS011;32057;47.830;19.046;2023-08-06T08:40:45;0.20;;;0.20;;
46348;SDS011;32057;47.830;19.046;2023-08-06T08:43:15;0.10;;;0.10;;
46348;SDS011;32057;47.830;19.046;2023-08-06T08:45:41;0.20;;;0.20;;
46348;SDS011;32057;47.830;19.046;2023-08-06T08:48:08;0.20;;;0.20;;
46348;SDS011;32057;47.830;19.046;2023-08-06T08:50:39;0.80;;;0.20;;
46348;SDS011;32057;47.830;19.046;2023-08-06T08:53:05;0.70;;;0.30;;
46348;SDS011;32057;47.830;19.046;2023-08-06T08:55:30;2.10;;;0.40;;
46348;SDS011;32057;47.830;19.046;2023-08-06T08:57:57;3.53;;;0.20;;
46348;SDS011;32057;47.830;19.046;2023-08-06T09:00:22;0.22;;;0.22;;
46348;SDS011;32057;47.830;19.046;2023-08-06T09:02:49;0.20;;;0.20;;
46348;SDS011;32057;47.830;19.046;2023-08-06T09:05:19;0.98;;;0.20;;
46348;SDS011;32057;47.830;19.046;2023-08-06T09:07:49;0.65;;;0.40;;
46348;SDS011;32057;47.830;19.046;2023-08-06T09:10:17;0.20;;;0.20;;
46348;SDS011;32057;47.830;19.046;2023-08-06T09:12:48;0.20;;;0.20;;
46348;SDS011;32057;47.830;19.046;2023-08-06T09:15:15;0.10;;;0.10;;
46348;SDS011;32057;47.830;19.046;2023-08-06T09:17:41;0.65;;;0.30;;
46348;SDS011;32057;47.830;19.046;2023-08-06T09:20:10;0.22;;;0.22;;
46348;SDS011;32057;47.830;19.046;2023-08-06T09:25:06;0.20;;;0.20;;
46348;SDS011;32057;47.830;19.046;2023-08-06T09:27:35;0.25;;;0.25;;
46348;SDS011;32057;47.830;19.046;2023-08-06T09:30:04;0.20;;;0.20;;
46348;SDS011;32057;47.830;19.046;2023-08-06T09:32:45;0.20;;;0.20;;
46348;SDS011;32057;47.830;19.046;2023-08-06T09:35:15;0.20;;;0.20;;
46348;SDS011;32057;47.830;19.046;2023-08-06T09:37:44;0.20;;;0.20;;
46348;SDS011;32057;47.830;19.046;2023-08-06T09:42:54;0.57;;;0.55;;
46348;SDS011;32057;47.830;19.046;2023-08-06T09:45:21;0.20;;;0.20;;
46348;SDS011;32057;47.830;19.046;2023-08-06T09:47:48;0.20;;;0.20;;
46348;SDS011;32057;47.830;19.046;2023-08-06T09:50:18;0.10;;;0.10;;
46348;SDS011;32057;47.830;19.046;2023-08-06T09:52:44;0.20;;;0.20;;
46348;SDS011;32057;47.830;19.046;2023-08-06T09:55:13;0.20;;;0.20;;
46348;SDS011;32057;47.830;19.046;2023-08-06T09:57:42;0.20;;;0.20;;
46348;SDS011;32057;47.830;19.046;2023-08-06T10:00:11;0.20;;;0.20;;
46348;SDS011;32057;47.830;19.046;2023-08-06T10:02:37;0.28;;;0.28;;
46348;SDS011;32057;47.830;19.046;2023-08-06T10:05:07;0.22;;;0.22;;
46348;SDS011;32057;47.830;19.046;2023-08-06T10:07:33;0.20;;;0.20;;
46348;SDS011;32057;47.830;19.046;2023-08-06T10:10:00;0.20;;;0.20;;
46348;SDS011;32057;47.830;19.046;2023-08-06T10:12:26;0.30;;;0.30;;
46348;SDS011;32057;47.830;19.046;2023-08-06T10:14:58;0.30;;;0.30;;
46348;SDS011;32057;47.830;19.046;2023-08-06T10:17:27;0.20;;;0.20;;
46348;SDS011;32057;47.830;19.046;2023-08-06T10:19:53;0.88;;;0.88;;
46348;SDS011;32057;47.830;19.046;2023-08-06T10:22:21;0.32;;;0.20;;
46348;SDS011;32057;47.830;19.046;2023-08-06T10:27:13;0.50;;;0.20;;
46348;SDS011;32057;47.830;19.046;2023-08-06T10:29:38;0.20;;;0.20;;
46348;SDS011;32057;47.830;19.046;2023-08-06T10:32:04;1.25;;;0.30;;
46348;SDS011;32057;47.830;19.046;2023-08-06T10:37:35;0.20;;;0.20;;
46348;SDS011;32057;47.830;19.046;2023-08-06T10:40:02;0.25;;;0.25;;
46348;SDS011;32057;47.830;19.046;2023-08-06T10:42:29;0.20;;;0.20;;
46348;SDS011;32057;47.830;19.046;2023-08-06T10:45:18;0.28;;;0.28;;
46348;SDS011;32057;47.830;19.046;2023-08-06T10:48:44;0.40;;;0.40;;
46348;SDS011;32057;47.830;19.046;2023-08-06T10:51:25;0.25;;;0.25;;
46348;SDS011;32057;47.830;19.046;2023-08-06T10:53:50;0.32;;;0.30;;
46348;SDS011;32057;47.830;19.046;2023-08-06T10:56:17;0.35;;;0.35;;
46348;SDS011;32057;47.830;19.046;2023-08-06T10:58:48;0.47;;;0.40;;
46348;SDS011;32057;47.830;19.046;2023-08-06T11:01:18;0.40;;;0.40;;
46348;SDS011;32057;47.830;19.046;2023-08-06T11:03:46;1.00;;;0.45;;
46348;SDS011;32057;47.830;19.046;2023-08-06T11:06:22;0.20;;;0.20;;
46348;SDS011;32057;47.830;19.046;2023-08-06T11:08:52;0.57;;;0.50;;
46348;SDS011;32057;47.830;19.046;2023-08-06T11:11:18;0.20;;;0.20;;
46348;SDS011;32057;47.830;19.046;2023-08-06T11:13:48;0.80;;;0.40;;
46348;SDS011;32057;47.830;19.046;2023-08-06T11:16:15;0.30;;;0.30;;
46348;SDS011;32057;47.830;19.046;2023-08-06T11:18:43;0.30;;;0.30;;
46348;SDS011;32057;47.830;19.046;2023-08-06T11:21:09;0.40;;;0.40;;
46348;SDS011;32057;47.830;19.046;2023-08-06T11:23:34;0.20;;;0.20;;
46348;SDS011;32057;47.830;19.046;2023-08-06T11:26:00;0.20;;;0.20;;
46348;SDS011;32057;47.830;19.046;2023-08-06T11:28:26;0.38;;;0.38;;
46348;SDS011;32057;47.830;19.046;2023-08-06T11:30:52;0.32;;;0.32;;
46348;SDS011;32057;47.830;19.046;2023-08-06T11:33:21;0.40;;;0.40;;
46348;SDS011;32057;47.830;19.046;2023-08-06T11:35:47;0.30;;;0.30;;
46348;SDS011;32057;47.830;19.046;2023-08-06T11:38:14;0.40;;;0.40;;
46348;SDS011;32057;47.830;19.046;2023-08-06T11:40:39;4.40;;;0.40;;
46348;SDS011;32057;47.830;19.046;2023-08-06T11:43:05;0.30;;;0.30;;
46348;SDS011;32057;47.830;19.046;2023-08-06T11:45:31;0.30;;;0.30;;
46348;SDS011;32057;47.830;19.046;2023-08-06T11:48:00;0.30;;;0.30;;
46348;SDS011;32057;47.830;19.046;2023-08-06T11:50:26;0.20;;;0.20;;
46348;SDS011;32057;47.830;19.046;2023-08-06T11:52:56;3.33;;;0.40;;
46348;SDS011;32057;47.830;19.046;2023-08-06T11:55:23;0.20;;;0.20;;
46348;SDS011;32057;47.830;19.046;2023-08-06T11:57:50;0.20;;;0.20;;
46348;SDS011;32057;47.830;19.046;2023-08-06T12:00:16;3.40;;;0.73;;
46348;SDS011;32057;47.830;19.046;2023-08-06T12:02:47;0.65;;;0.30;;
46348;SDS011;32057;47.830;19.046;2023-08-06T12:05:15;0.30;;;0.30;;
46348;SDS011;32057;47.830;19.046;2023-08-06T12:07:42;0.25;;;0.25;;
46348;SDS011;32057;47.830;19.046;2023-08-06T12:10:09;0.30;;;0.25;;
46348;SDS011;32057;47.830;19.046;2023-08-06T12:12:35;0.30;;;0.30;;
46348;SDS011;32057;47.830;19.046;2023-08-06T12:15:02;0.40;;;0.40;;
46348;SDS011;32057;47.830;19.046;2023-08-06T12:17:28;0.30;;;0.30;;
46348;SDS011;32057;47.830;19.046;2023-08-06T12:19:53;0.25;;;0.25;;
46348;SDS011;32057;47.830;19.046;2023-08-06T12:22:18;0.20;;;0.20;;
46348;SDS011;32057;47.830;19.046;2023-08-06T12:24:44;0.30;;;0.30;;
46348;SDS011;32057;47.830;19.046;2023-08-06T12:27:11;0.20;;;0.20;;
46348;SDS011;32057;47.830;19.046;2023-08-06T12:29:40;0.95;;;0.73;;
46348;SDS011;32057;47.830;19.046;2023-08-06T12:32:07;0.30;;;0.30;;
46348;SDS011;32057;47.830;19.046;2023-08-06T12:34:32;0.32;;;0.32;;
46348;SDS011;32057;47.830;19.046;2023-08-06T12:36:57;0.40;;;0.40;;
46348;SDS011;32057;47.830;19.046;2023-08-06T12:39:23;0.25;;;0.25;;
46348;SDS011;32057;47.830;19.046;2023-08-06T12:41:49;0.68;;;0.45;;
46348;SDS011;32057;47.830;19.046;2023-08-06T12:44:14;0.30;;;0.30;;
46348;SDS011;32057;47.830;19.046;2023-08-06T12:46:39;1.85;;;0.20;;
46348;SDS011;32057;47.830;19.046;2023-08-06T12:49:05;0.40;;;0.40;;
46348;SDS011;32057;47.830;19.046;2023-08-06T12:51:31;0.20;;;0.20;;
46348;SDS011;32057;47.830;19.046;2023-08-06T12:53:58;1.15;;;1.05;;
46348;SDS011;32057;47.830;19.046;2023-08-06T12:56:24;0.40;;;0.40;;
46348;SDS011;32057;47.830;19.046;2023-08-06T12:58:49;1.25;;;1.15;;
46348;SDS011;32057;47.830;19.046;2023-08-06T13:01:15;0.38;;;0.38;;
46348;SDS011;32057;47.830;19.046;2023-08-06T13:03:41;0.20;;;0.20;;
46348;SDS011;32057;47.830;19.046;2023-08-06T13:06:06;0.40;;;0.40;;
46348;SDS011;32057;47.830;19.046;2023-08-06T13:08:33;0.45;;;0.38;;
46348;SDS011;32057;47.830;19.046;2023-08-06T13:11:02;0.40;;;0.40;;
46348;SDS011;32057;47.830;19.046;2023-08-06T13:13:28;0.40;;;0.40;;
46348;SDS011;32057;47.830;19.046;2023-08-06T13:15:54;0.40;;;0.40;;
46348;SDS011;32057;47.830;19.046;2023-08-06T13:18:19;0.40;;;0.40;;
46348;SDS011;32057;47.830;19.046;2023-08-06T13:20:45;0.30;;;0.30;;
46348;SDS011;32057;47.830;19.046;2023-08-06T13:23:12;0.60;;;0.60;;
46348;SDS011;32057;47.830;19.046;2023-08-06T13:25:40;0.40;;;0.40;;
46348;SDS011;32057;47.830;19.046;2023-08-06T13:28:06;0.50;;;0.50;;
46348;SDS011;32057;47.830;19.046;2023-08-06T13:30:31;0.65;;;0.50;;
46348;SDS011;32057;47.830;19.046;2023-08-06T13:32:56;0.60;;;0.60;;
46348;SDS011;32057;47.830;19.046;2023-08-06T13:35:23;0.50;;;0.50;;
46348;SDS011;32057;47.830;19.046;2023-08-06T13:37:48;0.45;;;0.45;;
46348;SDS011;32057;47.830;19.046;2023-08-06T13:40:14;0.75;;;0.75;;
46348;SDS011;32057;47.830;19.046;2023-08-06T13:42:40;0.50;;;0.50;;
46348;SDS011;32057;47.830;19.046;2023-08-06T13:45:06;0.50;;;0.50;;
46348;SDS011;32057;47.830;19.046;2023-08-06T13:47:32;0.43;;;0.43;;
46348;SDS011;32057;47.830;19.046;2023-08-06T13:49:57;1.02;;;0.60;;
46348;SDS011;32057;47.830;19.046;2023-08-06T13:52:25;0.40;;;0.40;;
46348;SDS011;32057;47.830;19.046;2023-08-06T13:54:51;0.70;;;0.45;;
46348;SDS011;32057;47.830;19.046;2023-08-06T13:57:16;0.70;;;0.70;;
46348;SDS011;32057;47.830;19.046;2023-08-06T13:59:42;0.45;;;0.43;;
46348;SDS011;32057;47.830;19.046;2023-08-06T14:02:08;0.65;;;0.65;;
46348;SDS011;32057;47.830;19.046;2023-08-06T14:04:37;2.80;;;0.77;;
46348;SDS011;32057;47.830;19.046;2023-08-06T14:07:02;0.50;;;0.50;;
46348;SDS011;32057;47.830;19.046;2023-08-06T14:09:28;0.40;;;0.40;;
46348;SDS011;32057;47.830;19.046;2023-08-06T14:11:54;0.70;;;0.70;;
46348;SDS011;32057;47.830;19.046;2023-08-06T14:14:20;0.60;;;0.60;;
46348;SDS011;32057;47.830;19.046;2023-08-06T14:16:51;1.13;;;0.60;;
46348;SDS011;32057;47.830;19.046;2023-08-06T14:19:16;0.73;;;0.52;;
46348;SDS011;32057;47.830;19.046;2023-08-06T14:21:42;0.60;;;0.60;;
46348;SDS011;32057;47.830;19.046;2023-08-06T14:24:07;0.70;;;0.70;;
46348;SDS011;32057;47.830;19.046;2023-08-06T14:26:33;0.88;;;0.88;;
46348;SDS011;32057;47.830;19.046;2023-08-06T14:28:58;1.02;;;0.90;;
46348;SDS011;32057;47.830;19.046;2023-08-06T14:31:24;1.08;;;1.00;;
46348;SDS011;32057;47.830;19.046;2023-08-06T14:33:49;0.77;;;0.77;;
46348;SDS011;32057;47.830;19.046;2023-08-06T14:36:16;0.85;;;0.85;;
46348;SDS011;32057;47.830;19.046;2023-08-06T14:38:42;1.05;;;0.95;;
46348;SDS011;32057;47.830;19.046;2023-08-06T14:41:09;1.17;;;1.00;;
46348;SDS011;32057;47.830;19.046;2023-08-06T14:43:34;1.20;;;1.13;;
46348;SDS011;32057;47.830;19.046;2023-08-06T14:46:00;2.05;;;0.90;;
46348;SDS011;32057;47.830;19.046;2023-08-06T14:48:26;1.38;;;1.27;;
46348;SDS011;32057;47.830;19.046;2023-08-06T14:50:51;1.10;;;1.00;;
46348;SDS011;32057;47.830;19.046;2023-08-06T14:53:18;1.85;;;1.23;;
46348;SDS011;32057;47.830;19.046;2023-08-06T14:55:44;0.88;;;0.88;;